Time;durP1;ratioP1;P1;durP2;ratioP2;P2;SDS_P1;SDS_P2;PMS_P1;PMS_P2;Temp;Humidity;BMP_temperature;BMP_pressure;BME280_temperature;BME280_humidity;BME280_pressure;Samples;Min_cycle;Max_cycle;Signal;HPM_P1;HPM_P2
2022/11/21 00:00:16;;;;;;;24.38;7.05;;;8.90;99.90;;;;;;5052191;28;20110;-64
2022/11/21 00:02:42;;;;;;;28.88;7.07;;;8.90;99.90;;;;;;5051682;28;20033;-63
2022/11/21 00:05:08;;;;;;;24.13;6.50;;;9.00;99.90;;;;;;5051358;28;20171;-63
2022/11/21 00:07:34;;;;;;;26.30;6.28;;;9.00;99.90;;;;;;5050402;28;20029;-64
2022/11/21 00:09:59;;;;;;;21.48;6.43;;;9.10;99.90;;;;;;5051667;28;20037;-63
2022/11/21 00:12:25;;;;;;;23.30;6.38;;;9.10;99.90;;;;;;5051829;28;20056;-63
2022/11/21 00:14:51;;;;;;;32.55;7.90;;;9.10;99.90;;;;;;5051712;28;20393;-64
2022/11/21 00:17:16;;;;;;;22.45;6.53;;;9.10;99.90;;;;;;5051533;28;20443;-63
2022/11/21 00:19:42;;;;;;;24.73;6.55;;;9.10;99.90;;;;;;5051747;28;20389;-64
2022/11/21 00:22:08;;;;;;;29.92;7.07;;;9.10;99.90;;;;;;5051404;28;20032;-63
2022/11/21 00:24:34;;;;;;;19.10;5.70;;;9.10;99.90;;;;;;5051641;28;20032;-64
2022/11/21 00:26:59;;;;;;;18.10;5.35;;;9.00;99.90;;;;;;5051687;28;20456;-64
2022/11/21 00:29:25;;;;;;;22.85;5.68;;;9.10;99.90;;;;;;5051550;28;20033;-63
2022/11/21 00:31:51;;;;;;;22.27;6.28;;;9.10;99.90;;;;;;5051672;28;20462;-63
2022/11/21 00:34:16;;;;;;;31.00;7.60;;;9.10;99.90;;;;;;5051539;28;20033;-64
2022/11/21 00:36:42;;;;;;;28.92;7.43;;;9.10;99.90;;;;;;5051628;28;20024;-62
2022/11/21 00:39:08;;;;;;;23.10;6.78;;;9.10;99.90;;;;;;5051125;28;20416;-64
2022/11/21 00:41:33;;;;;;;22.85;7.32;;;9.10;99.90;;;;;;5051358;28;20398;-63
2022/11/21 00:43:59;;;;;;;18.35;6.93;;;9.20;99.90;;;;;;5051432;28;20032;-64
2022/11/21 00:46:25;;;;;;;26.35;8.48;;;9.20;99.90;;;;;;5051704;28;20473;-63
2022/11/21 00:48:51;;;;;;;22.50;8.15;;;9.20;99.90;;;;;;5051384;28;20440;-63
2022/11/21 00:51:16;;;;;;;20.30;7.47;;;9.20;99.90;;;;;;5051295;28;20017;-63
2022/11/21 00:53:42;;;;;;;23.63;8.00;;;9.20;99.90;;;;;;5051386;28;20025;-63
2022/11/21 00:56:08;;;;;;;33.80;9.95;;;9.20;99.90;;;;;;5051348;28;20500;-64
2022/11/21 00:58:34;;;;;;;35.45;10.65;;;9.20;99.90;;;;;;5051366;28;20094;-64
2022/11/21 01:01:11;;;;;;;30.65;10.75;;;9.20;99.90;;;;;;5051124;28;20474;-63
2022/11/21 01:03:37;;;;;;;34.42;11.77;;;9.20;99.90;;;;;;5051202;28;20111;-63
2022/11/21 01:06:08;;;;;;;33.33;13.07;;;9.30;99.90;;;;;;5051035;28;20014;-64
2022/11/21 01:08:37;;;;;;;25.95;11.00;;;9.30;99.90;;;;;;5051274;28;20048;-64
2022/11/21 01:11:09;;;;;;;20.38;9.77;;;9.30;99.90;;;;;;5051219;28;20055;-63
2022/11/21 01:13:35;;;;;;;32.28;12.45;;;9.30;99.90;;;;;;5051251;28;20056;-63
2022/11/21 01:16:11;;;;;;;26.48;11.15;;;9.30;99.90;;;;;;5051451;28;20017;-64
2022/11/21 01:18:36;;;;;;;32.53;15.80;;;9.30;99.90;;;;;;5054348;28;20028;-64
2022/11/21 01:21:07;;;;;;;21.33;9.45;;;9.40;99.90;;;;;;5054699;28;20025;-64
2022/11/21 01:23:33;;;;;;;32.85;13.75;;;9.40;99.90;;;;;;5054188;28;20037;-64
2022/11/21 01:26:04;;;;;;;27.83;11.68;;;9.40;99.90;;;;;;5054503;28;20427;-64
2022/11/21 01:28:30;;;;;;;32.50;13.60;;;9.40;99.90;;;;;;5054523;28;20021;-64
2022/11/21 01:31:06;;;;;;;46.88;12.98;;;9.50;99.90;;;;;;5054413;28;20029;-64
2022/11/21 01:33:32;;;;;;;25.30;11.90;;;9.50;99.90;;;;;;5054455;28;20171;-64
2022/11/21 01:36:12;;;;;;;28.70;11.43;;;9.50;99.90;;;;;;5054089;28;20538;-65
2022/11/21 01:38:39;;;;;;;34.58;11.32;;;9.50;99.90;;;;;;5054484;28;20025;-64
2022/11/21 01:41:06;;;;;;;59.20;14.52;;;9.50;99.90;;;;;;5054139;28;20106;-64
2022/11/21 01:43:32;;;;;;;32.08;10.38;;;9.50;99.90;;;;;;5052963;28;20402;-63
2022/11/21 01:46:06;;;;;;;38.95;13.50;;;9.60;99.90;;;;;;5054172;28;20021;-63
2022/11/21 01:48:44;;;;;;;44.40;12.20;;;9.60;99.90;;;;;;5054257;28;20032;-63
2022/11/21 01:51:19;;;;;;;52.47;11.60;;;9.60;99.90;;;;;;5053839;28;20030;-64
2022/11/21 01:53:58;;;;;;;22.90;9.05;;;9.60;99.90;;;;;;5053956;28;20029;-64
2022/11/21 01:56:25;;;;;;;25.05;9.65;;;9.60;99.90;;;;;;5053918;28;20024;-64
2022/11/21 01:58:54;;;;;;;42.42;11.20;;;9.70;99.90;;;;;;5053964;28;20021;-63
2022/11/21 02:01:20;;;;;;;32.88;9.88;;;9.70;99.90;;;;;;5054116;28;20021;-64
2022/11/21 02:03:47;;;;;;;47.13;12.93;;;9.70;99.90;;;;;;5053910;28;20505;-62
2022/11/21 02:06:13;;;;;;;34.17;12.20;;;9.70;99.90;;;;;;5053339;28;20090;-63
2022/11/21 02:08:41;;;;;;;34.03;12.05;;;9.70;99.90;;;;;;5054052;28;20417;-63
2022/11/21 02:11:35;;;;;;;26.35;12.48;;;9.70;99.90;;;;;;5053827;28;20021;-63
2022/11/21 02:14:01;;;;;;;44.15;14.23;;;9.70;99.90;;;;;;5053756;28;20029;-63
2022/11/21 02:16:27;;;;;;;39.90;16.60;;;9.70;99.90;;;;;;5053744;28;20037;-63
2022/11/21 02:18:53;;;;;;;35.00;16.77;;;9.70;99.90;;;;;;5053485;28;20036;-63
2022/11/21 02:21:43;;;;;;;37.70;17.60;;;9.70;99.90;;;;;;5053711;28;20025;-64
2022/11/21 02:24:11;;;;;;;48.75;20.38;;;9.80;99.90;;;;;;5053367;28;20029;-63
2022/11/21 02:26:37;;;;;;;41.53;20.13;;;9.80;99.90;;;;;;5053433;28;20028;-63
2022/11/21 02:29:03;;;;;;;39.35;18.52;;;9.80;99.90;;;;;;5053263;28;20018;-64
2022/11/21 02:31:29;;;;;;;43.53;21.75;;;9.80;99.90;;;;;;5053444;28;20390;-63
2022/11/21 02:33:54;;;;;;;48.65;22.02;;;9.80;99.90;;;;;;5052969;28;20032;-63
2022/11/21 02:36:34;;;;;;;53.35;22.73;;;9.80;99.90;;;;;;5053151;28;20482;-64
2022/11/21 02:39:00;;;;;;;59.25;24.65;;;9.80;99.90;;;;;;5052990;28;20020;-64
2022/11/21 02:41:28;;;;;;;69.70;26.73;;;9.80;99.90;;;;;;5053207;28;20090;-64
2022/11/21 02:44:05;;;;;;;66.35;27.63;;;9.90;99.90;;;;;;5053207;28;20028;-63
2022/11/21 02:46:33;;;;;;;57.75;27.02;;;9.90;99.90;;;;;;5053061;28;20029;-63
2022/11/21 02:49:02;;;;;;;67.95;28.58;;;9.90;99.90;;;;;;5052689;28;20029;-63
2022/11/21 02:51:27;;;;;;;63.20;27.73;;;9.90;99.90;;;;;;5052939;28;20083;-63
2022/11/21 02:53:53;;;;;;;69.93;29.08;;;9.90;99.90;;;;;;5053264;28;20021;-63
2022/11/21 02:56:19;;;;;;;73.13;30.85;;;9.90;99.90;;;;;;5052793;28;20124;-63
2022/11/21 02:58:44;;;;;;;74.95;30.75;;;9.90;99.90;;;;;;5052828;28;20027;-64
2022/11/21 03:01:10;;;;;;;80.80;31.35;;;9.90;99.90;;;;;;5052778;28;20029;-64
2022/11/21 03:03:36;;;;;;;73.68;31.05;;;9.90;99.90;;;;;;5052327;28;20045;-64
2022/11/21 03:06:01;;;;;;;71.85;30.27;;;9.90;99.90;;;;;;5051760;28;20021;-63
2022/11/21 03:08:27;;;;;;;65.28;28.80;;;10.00;99.90;;;;;;5052741;28;20021;-63
2022/11/21 03:10:53;;;;;;;63.08;28.75;;;9.90;99.90;;;;;;5052634;28;20029;-63
2022/11/21 03:13:19;;;;;;;65.45;28.75;;;10.00;99.90;;;;;;5052580;28;20541;-64
2022/11/21 03:15:44;;;;;;;65.20;28.92;;;10.00;99.90;;;;;;5052519;28;20131;-65
2022/11/21 03:18:10;;;;;;;62.65;26.60;;;9.90;99.90;;;;;;5052406;28;20528;-64
2022/11/21 03:20:36;;;;;;;62.97;26.67;;;9.90;99.90;;;;;;5052573;28;20040;-64
2022/11/21 03:23:02;;;;;;;64.05;25.65;;;10.00;99.90;;;;;;5052317;28;20032;-64
2022/11/21 03:25:28;;;;;;;56.72;24.77;;;9.90;99.90;;;;;;5052221;28;20031;-64
2022/11/21 03:27:54;;;;;;;56.50;23.77;;;10.00;99.90;;;;;;5052691;28;20374;-64
2022/11/21 03:30:21;;;;;;;48.83;22.80;;;10.00;99.90;;;;;;5052133;28;20021;-64
2022/11/21 03:32:47;;;;;;;49.00;21.33;;;10.00;99.90;;;;;;5051816;28;20459;-64
2022/11/21 03:35:13;;;;;;;43.97;20.13;;;10.00;99.90;;;;;;5051925;28;20017;-63
2022/11/21 03:37:39;;;;;;;45.03;19.98;;;10.00;99.90;;;;;;5052188;28;20075;-64
2022/11/21 03:40:06;;;;;;;43.50;18.27;;;10.00;99.90;;;;;;5051226;28;20383;-64
2022/11/21 03:42:31;;;;;;;39.90;18.60;;;10.00;99.90;;;;;;5052130;28;20028;-63
2022/11/21 03:44:57;;;;;;;41.35;18.45;;;10.00;99.90;;;;;;5052001;28;20079;-64
2022/11/21 03:47:24;;;;;;;41.03;17.88;;;9.90;99.90;;;;;;5051591;28;20108;-64
2022/11/21 03:49:50;;;;;;;38.33;16.83;;;9.90;99.90;;;;;;5052043;28;20100;-63
2022/11/21 03:52:16;;;;;;;42.25;20.42;;;9.90;99.90;;;;;;5051956;28;20446;-64
2022/11/21 03:54:41;;;;;;;40.85;18.95;;;9.90;99.90;;;;;;5052160;28;20033;-64
2022/11/21 03:57:07;;;;;;;40.08;17.10;;;9.90;99.90;;;;;;5051913;28;20405;-64
2022/11/21 03:59:33;;;;;;;35.78;16.73;;;9.90;99.90;;;;;;5051835;28;20440;-64
2022/11/21 04:01:58;;;;;;;40.22;16.65;;;10.00;99.90;;;;;;5051463;28;20551;-64
2022/11/21 04:04:24;;;;;;;34.67;15.88;;;9.90;99.90;;;;;;5051870;28;20032;-64
2022/11/21 04:06:50;;;;;;;38.65;16.15;;;9.90;99.90;;;;;;5051999;28;20497;-64
2022/11/21 04:09:15;;;;;;;42.90;16.27;;;9.80;99.90;;;;;;5051855;28;20500;-64
2022/11/21 04:11:41;;;;;;;34.53;16.23;;;9.90;99.90;;;;;;5051847;28;20134;-64
2022/11/21 04:14:06;;;;;;;40.53;15.68;;;9.90;99.90;;;;;;5051803;28;20029;-64
2022/11/21 04:16:32;;;;;;;39.35;14.95;;;9.80;99.90;;;;;;5051866;28;20611;-64
2022/11/21 04:18:58;;;;;;;37.60;14.95;;;9.90;99.90;;;;;;5051675;28;20114;-64
2022/11/21 04:21:23;;;;;;;37.17;15.13;;;9.90;99.90;;;;;;5051670;28;20052;-64
2022/11/21 04:23:49;;;;;;;32.10;14.23;;;9.90;99.90;;;;;;5051544;28;20037;-63
2022/11/21 04:26:15;;;;;;;36.92;14.52;;;9.90;99.90;;;;;;5051532;28;20028;-64
2022/11/21 04:28:40;;;;;;;35.85;13.77;;;9.80;99.90;;;;;;5051493;28;20526;-64
2022/11/21 04:31:07;;;;;;;39.45;14.90;;;9.80;99.90;;;;;;5051582;28;20047;-64
2022/11/21 04:33:33;;;;;;;37.67;14.05;;;9.80;99.90;;;;;;5051659;28;20026;-63
2022/11/21 04:35:59;;;;;;;36.80;13.88;;;9.80;99.90;;;;;;5051113;28;20179;-63
2022/11/21 04:38:25;;;;;;;33.40;13.75;;;9.80;99.90;;;;;;5050458;28;20517;-64
2022/11/21 04:40:51;;;;;;;33.72;13.48;;;9.80;99.90;;;;;;5051514;28;20080;-64
2022/11/21 04:43:18;;;;;;;28.17;12.00;;;9.80;99.90;;;;;;5051368;28;20502;-64
2022/11/21 04:45:43;;;;;;;29.02;11.60;;;9.90;99.90;;;;;;5051148;28;20355;-64
2022/11/21 04:48:10;;;;;;;25.45;11.48;;;9.80;99.90;;;;;;5051400;28;20032;-64
2022/11/21 04:50:36;;;;;;;24.80;10.85;;;9.80;99.90;;;;;;5051440;28;20461;-64
2022/11/21 04:53:01;;;;;;;25.65;10.70;;;9.90;99.90;;;;;;5055111;28;20112;-64
2022/11/21 04:55:30;;;;;;;26.95;10.95;;;9.90;99.90;;;;;;5055503;28;20028;-63
2022/11/21 04:57:57;;;;;;;23.63;10.30;;;9.90;99.90;;;;;;5054950;28;20375;-63
2022/11/21 05:00:23;;;;;;;24.02;9.65;;;9.90;99.90;;;;;;5054794;28;20440;-63
2022/11/21 05:02:48;;;;;;;25.73;9.85;;;9.90;99.90;;;;;;5055292;28;20044;-64
2022/11/21 05:05:14;;;;;;;27.65;10.15;;;9.90;99.90;;;;;;5054862;28;20496;-64
2022/11/21 05:07:40;;;;;;;25.13;10.10;;;9.90;99.90;;;;;;5054848;28;20025;-64
2022/11/21 05:10:07;;;;;;;27.67;10.32;;;9.90;99.90;;;;;;5054841;28;20108;-64
2022/11/21 05:15:17;;;;;;;23.27;9.52;;;9.90;99.90;;;;;;5054655;28;20032;-64
2022/11/21 05:17:43;;;;;;;24.42;9.90;;;9.90;99.90;;;;;;5054639;28;20451;-63
2022/11/21 05:20:09;;;;;;;23.83;10.05;;;9.90;99.90;;;;;;5054634;28;20048;-64
2022/11/21 05:22:35;;;;;;;26.95;10.50;;;9.90;99.90;;;;;;5054965;28;20282;-64
2022/11/21 05:25:01;;;;;;;24.90;10.80;;;9.90;99.90;;;;;;5054467;28;20056;-63
2022/11/21 05:27:27;;;;;;;25.77;10.23;;;9.90;99.90;;;;;;5054422;28;20036;-64
2022/11/21 05:29:54;;;;;;;27.38;11.38;;;9.90;99.90;;;;;;5054103;28;20035;-64
2022/11/21 05:32:20;;;;;;;22.83;10.15;;;9.90;99.90;;;;;;5054660;28;20029;-64
2022/11/21 05:34:45;;;;;;;24.95;11.40;;;9.90;99.90;;;;;;5054268;28;20027;-64
2022/11/21 05:37:11;;;;;;;24.17;10.77;;;9.90;99.90;;;;;;5054453;28;20087;-63
2022/11/21 05:39:37;;;;;;;22.92;10.18;;;9.90;99.90;;;;;;5054145;28;20063;-64
2022/11/21 05:42:02;;;;;;;24.75;11.20;;;9.90;99.90;;;;;;5054080;28;20402;-63
2022/11/21 05:44:28;;;;;;;24.15;10.73;;;9.90;99.90;;;;;;5053905;28;20025;-64
2022/11/21 05:46:54;;;;;;;26.08;11.25;;;9.90;99.90;;;;;;5054096;28;20031;-64
2022/11/21 05:49:20;;;;;;;27.05;10.85;;;9.90;99.90;;;;;;5054494;28;20025;-64
2022/11/21 05:51:45;;;;;;;25.10;11.07;;;9.90;99.90;;;;;;5054157;28;20029;-64
2022/11/21 05:54:16;;;;;;;22.02;10.48;;;9.90;99.90;;;;;;5054025;28;20032;-63
2022/11/21 05:56:41;;;;;;;22.23;10.05;;;9.90;99.90;;;;;;5053520;28;20028;-64
2022/11/21 05:59:09;;;;;;;25.95;10.98;;;9.90;99.90;;;;;;5054032;28;20026;-63
2022/11/21 06:04:19;;;;;;;24.73;10.90;;;9.90;99.90;;;;;;5053417;28;20039;-64
2022/11/21 06:06:45;;;;;;;18.95;9.48;;;9.90;99.90;;;;;;5053725;28;20025;-62
2022/11/21 06:09:11;;;;;;;21.63;10.13;;;9.90;99.90;;;;;;5053718;28;20056;-63
2022/11/21 06:11:36;;;;;;;21.38;9.95;;;9.90;99.90;;;;;;5053361;28;20033;-63
2022/11/21 06:14:02;;;;;;;18.48;9.70;;;9.90;99.90;;;;;;5053628;28;20025;-63
2022/11/21 06:16:28;;;;;;;24.63;10.15;;;10.00;99.90;;;;;;5054055;28;20025;-64
2022/11/21 06:18:54;;;;;;;22.83;9.88;;;9.90;99.90;;;;;;5053582;28;20032;-64
2022/11/21 06:21:24;;;;;;;24.63;10.15;;;9.80;99.90;;;;;;5053616;28;20099;-65
2022/11/21 06:23:52;;;;;;;18.23;9.30;;;9.80;99.90;;;;;;5053290;28;20505;-64
2022/11/21 06:26:21;;;;;;;24.50;9.93;;;9.90;99.90;;;;;;5052942;28;20056;-64
2022/11/21 06:28:47;;;;;;;17.92;8.10;;;9.80;99.90;;;;;;5053786;28;20075;-64
2022/11/21 06:31:21;;;;;;;14.95;7.05;;;9.90;99.90;;;;;;5053114;28;20086;-64
2022/11/21 06:33:50;;;;;;;16.38;7.43;;;9.80;99.90;;;;;;5053913;28;20094;-65
2022/11/21 06:36:17;;;;;;;11.63;5.43;;;9.90;99.90;;;;;;5053125;28;20517;-64
2022/11/21 06:38:43;;;;;;;15.25;6.10;;;9.90;99.90;;;;;;5053182;28;20414;-63
2022/11/21 06:41:14;;;;;;;10.02;4.97;;;9.90;99.90;;;;;;5052967;28;20402;-63
2022/11/21 06:43:41;;;;;;;10.68;4.80;;;9.90;99.90;;;;;;5053416;28;20056;-63
2022/11/21 06:46:07;;;;;;;10.35;4.40;;;9.90;99.90;;;;;;5053071;28;20028;-63
2022/11/21 06:48:34;;;;;;;7.82;4.03;;;10.00;99.90;;;;;;5053201;28;20028;-64
2022/11/21 06:51:07;;;;;;;7.35;3.33;;;9.90;99.90;;;;;;5052870;28;20108;-63
2022/11/21 06:53:33;;;;;;;6.85;3.08;;;9.90;99.90;;;;;;5051566;28;20501;-64
2022/11/21 06:56:03;;;;;;;5.28;2.65;;;9.90;99.90;;;;;;5052763;28;20026;-64
2022/11/21 06:58:29;;;;;;;5.82;2.45;;;9.90;99.90;;;;;;5052643;28;20036;-63
2022/11/21 07:00:55;;;;;;;3.08;1.90;;;9.90;99.90;;;;;;5052600;28;20017;-64
2022/11/21 07:03:21;;;;;;;6.82;2.30;;;9.90;99.90;;;;;;5052587;28;20044;-64
2022/11/21 07:05:47;;;;;;;3.42;2.00;;;9.90;99.90;;;;;;5052677;28;20029;-65
2022/11/21 07:08:13;;;;;;;3.35;1.88;;;9.90;99.90;;;;;;5052452;28;20032;-64
2022/11/21 07:10:39;;;;;;;4.47;1.85;;;10.00;99.90;;;;;;5052720;28;20021;-64
2022/11/21 07:13:23;;;;;;;4.47;2.10;;;9.90;99.90;;;;;;5052612;28;20021;-63
2022/11/21 07:15:54;;;;;;;2.10;1.48;;;9.90;99.90;;;;;;5052559;28;20087;-64
2022/11/21 07:18:21;;;;;;;2.30;1.77;;;9.90;99.90;;;;;;5052473;28;20063;-64
2022/11/21 07:20:47;;;;;;;2.67;1.80;;;9.90;99.90;;;;;;5052496;28;20028;-65
2022/11/21 07:23:13;;;;;;;3.47;1.90;;;9.90;99.90;;;;;;5052681;28;20040;-64
2022/11/21 07:25:39;;;;;;;2.35;1.58;;;9.90;99.90;;;;;;5051867;28;20033;-64
2022/11/21 07:28:06;;;;;;;3.47;1.23;;;9.90;99.90;;;;;;5052261;28;20112;-64
2022/11/21 07:30:32;;;;;;;2.70;1.70;;;10.00;99.90;;;;;;5052202;28;20104;-64
2022/11/21 07:33:06;;;;;;;2.70;1.50;;;10.00;99.90;;;;;;5052305;28;20025;-64
2022/11/21 07:35:33;;;;;;;3.05;1.50;;;10.00;99.90;;;;;;5052273;28;20066;-64
2022/11/21 07:37:59;;;;;;;4.40;1.60;;;10.00;99.90;;;;;;5052343;28;20031;-64
2022/11/21 07:40:25;;;;;;;1.50;1.25;;;10.00;99.90;;;;;;5051640;28;20045;-64
2022/11/21 07:42:52;;;;;;;1.67;1.35;;;10.00;99.90;;;;;;5051952;28;20048;-64
2022/11/21 07:45:18;;;;;;;3.38;1.30;;;10.00;99.90;;;;;;5052140;28;20106;-64
2022/11/21 07:47:44;;;;;;;1.13;1.00;;;10.00;99.90;;;;;;5052394;28;20021;-64
2022/11/21 07:50:11;;;;;;;3.55;1.30;;;10.00;99.90;;;;;;5052098;28;20504;-64
2022/11/21 07:52:37;;;;;;;2.90;1.35;;;10.00;99.90;;;;;;5051994;28;20059;-64
2022/11/21 07:55:04;;;;;;;4.18;1.10;;;10.00;99.90;;;;;;5051391;28;20460;-64
2022/11/21 07:57:31;;;;;;;2.50;1.20;;;10.00;99.90;;;;;;5052115;28;20045;-64
2022/11/21 07:59:57;;;;;;;1.60;1.02;;;10.00;99.90;;;;;;5052058;28;20021;-64
2022/11/21 08:02:26;;;;;;;1.15;0.93;;;10.00;99.90;;;;;;5052042;28;20028;-62
2022/11/21 08:04:53;;;;;;;2.47;1.33;;;10.00;99.90;;;;;;5052085;28;20096;-64
2022/11/21 08:07:21;;;;;;;2.15;0.90;;;10.00;99.90;;;;;;5051604;28;20510;-63
2022/11/21 08:09:47;;;;;;;13.60;10.40;;;10.00;99.90;;;;;;5051638;28;20032;-63
2022/11/21 08:12:13;;;;;;;3.90;3.00;;;10.10;99.90;;;;;;5051670;28;20486;-64
2022/11/21 08:14:39;;;;;;;3.08;2.13;;;10.10;99.90;;;;;;5051576;28;20025;-63
2022/11/21 08:17:05;;;;;;;1.42;1.10;;;10.20;99.90;;;;;;5051902;28;20442;-63
2022/11/21 08:19:32;;;;;;;2.78;1.23;;;10.20;99.90;;;;;;5051545;28;20520;-64
2022/11/21 08:21:58;;;;;;;1.70;1.10;;;10.20;99.90;;;;;;5050976;28;20136;-63
2022/11/21 08:24:24;;;;;;;1.10;1.00;;;10.40;99.90;;;;;;5051625;28;20024;-64
2022/11/21 08:26:50;;;;;;;1.95;1.20;;;10.40;99.90;;;;;;5053405;28;20033;-63
2022/11/21 08:29:16;;;;;;;2.85;1.30;;;10.50;99.90;;;;;;5055897;28;20025;-64
2022/11/21 08:31:43;;;;;;;3.17;1.23;;;10.50;99.90;;;;;;5055599;28;20032;-64
2022/11/21 08:34:09;;;;;;;4.15;1.45;;;10.60;99.90;;;;;;5055469;28;20555;-63
2022/11/21 08:36:35;;;;;;;4.65;2.05;;;10.60;99.90;;;;;;5055009;28;20040;-62
2022/11/21 08:39:02;;;;;;;4.80;2.90;;;10.70;99.90;;;;;;5055688;28;20032;-63
2022/11/21 08:44:12;;;;;;;4.00;3.00;;;10.80;99.90;;;;;;5056018;28;20106;-64
2022/11/21 08:46:38;;;;;;;5.68;3.20;;;10.90;99.90;;;;;;5055140;28;20021;-63
2022/11/21 08:49:05;;;;;;;6.65;3.72;;;11.10;99.90;;;;;;5055316;28;20390;-64
2022/11/21 08:51:31;;;;;;;7.30;3.15;;;11.20;99.90;;;;;;5054410;28;20393;-63
2022/11/21 08:53:57;;;;;;;5.93;2.58;;;11.30;99.90;;;;;;5054772;28;20098;-64
2022/11/21 08:56:23;;;;;;;13.02;3.55;;;11.50;99.90;;;;;;5055052;28;20485;-63
2022/11/21 08:58:48;;;;;;;17.83;7.97;;;11.80;99.90;;;;;;5055034;28;20029;-63
2022/11/21 09:01:14;;;;;;;14.93;6.72;;;12.00;99.90;;;;;;5055109;28;20033;-63
2022/11/21 09:03:40;;;;;;;40.33;35.53;;;12.20;99.90;;;;;;5054794;28;20041;-64
2022/11/21 09:06:06;;;;;;;72.43;64.57;;;12.30;99.90;;;;;;5054653;28;20029;-64
2022/11/21 09:08:31;;;;;;;34.17;14.07;;;12.50;99.90;;;;;;5055391;28;20025;-64
2022/11/21 09:10:57;;;;;;;29.42;9.10;;;12.80;99.90;;;;;;5054874;28;20427;-64
2022/11/21 09:13:23;;;;;;;36.88;23.73;;;13.00;99.90;;;;;;5054250;28;20386;-64
2022/11/21 09:18:33;;;;;;;;;;;13.20;99.90;;;;;;5055378;28;20040;-64
2022/11/21 09:20:59;;;;;;;50.53;17.20;;;13.30;99.90;;;;;;5054865;28;19905;-64
2022/11/21 09:23:25;;;;;;;64.00;24.75;;;13.50;99.90;;;;;;5054706;28;20041;-64
2022/11/21 09:25:51;;;;;;;71.65;19.30;;;13.80;99.90;;;;;;5055022;28;20025;-64
2022/11/21 09:28:16;;;;;;;63.50;19.55;;;14.20;99.90;;;;;;5055371;28;20029;-65
2022/11/21 09:30:42;;;;;;;65.35;20.88;;;14.20;99.90;;;;;;5054790;28;20096;-64
2022/11/21 09:33:13;;;;;;;61.08;14.40;;;14.40;99.90;;;;;;5054380;28;20040;-64
2022/11/21 09:35:39;;;;;;;64.65;12.00;;;14.50;99.90;;;;;;5054297;28;20017;-64
2022/11/21 09:38:05;;;;;;;61.50;12.43;;;14.70;99.90;;;;;;5055075;28;20415;-64
2022/11/21 09:40:32;;;;;;;58.10;12.05;;;14.70;99.90;;;;;;5055422;28;20048;-64
2022/11/21 09:43:27;;;;;;;48.90;9.80;;;14.80;99.90;;;;;;5055387;28;20612;-64
2022/11/21 09:46:01;;;;;;;51.83;10.20;;;15.10;99.90;;;;;;5032789;28;20505;-64
2022/11/21 09:48:40;;;;;;;49.72;9.77;;;15.50;99.90;;;;;;5033256;28;20034;-64
2022/11/21 09:51:11;;;;;;;42.65;9.15;;;15.70;99.90;;;;;;5032524;28;20038;-64
2022/11/21 09:53:48;;;;;;;53.88;9.38;;;15.50;99.90;;;;;;5033369;28;20026;-64
2022/11/21 09:56:18;;;;;;;41.55;8.13;;;15.60;99.90;;;;;;5033298;28;20033;-64
2022/11/21 09:59:11;;;;;;;36.50;8.32;;;16.00;99.90;;;;;;5032525;28;20529;-64
2022/11/21 10:01:37;;;;;;;49.38;9.63;;;16.30;99.90;;;;;;5031640;28;20032;-65
2022/11/21 10:04:03;;;;;;;43.00;8.27;;;16.50;99.90;;;;;;5033126;28;20041;-64
2022/11/21 10:06:35;;;;;;;46.97;9.07;;;16.40;99.90;;;;;;5032482;28;20149;-64
2022/11/21 10:09:26;;;;;;;44.90;8.45;;;16.20;99.90;;;;;;5032507;28;20037;-64
2022/11/21 10:12:41;;;;;;;44.03;9.25;;;16.20;99.90;;;;;;5031872;28;20053;-64
2022/11/21 10:15:27;;;;;;;40.80;8.27;;;16.30;99.90;;;;;;4992425;28;20077;-64
2022/11/21 10:18:10;;;;;;;42.67;9.48;;;16.40;99.90;;;;;;4991912;28;20041;-64
2022/11/21 10:20:38;;;;;;;40.45;9.35;;;16.20;99.90;;;;;;4991940;28;20508;-64
2022/11/21 10:23:19;;;;;;;41.95;8.40;;;16.10;99.90;;;;;;5008246;28;20046;-64
2022/11/21 10:25:55;;;;;;;46.10;9.15;;;16.10;99.90;;;;;;5012156;28;20038;-64
2022/11/21 10:28:48;;;;;;;41.65;8.43;;;16.10;99.90;;;;;;5011573;28;20053;-64
2022/11/21 10:31:14;;;;;;;38.40;8.52;;;16.10;99.90;;;;;;5011351;28;20601;-64
2022/11/21 10:33:40;;;;;;;43.70;9.48;;;16.10;99.90;;;;;;5011043;28;20042;-63
2022/11/21 10:36:21;;;;;;;43.40;8.75;;;16.00;99.90;;;;;;5011075;28;20111;-64
2022/11/21 10:38:49;;;;;;;38.97;8.65;;;15.90;99.90;;;;;;5010947;28;20070;-64
2022/11/21 10:41:32;;;;;;;95.00;65.07;;;15.90;99.90;;;;;;5010845;28;20550;-64
2022/11/21 10:47:11;;;;;;;53.45;27.65;;;15.90;99.90;;;;;;5054610;28;20413;-63
2022/11/21 10:49:37;;;;;;;47.25;11.30;;;15.80;99.90;;;;;;5054022;28;20033;-64
2022/11/21 10:52:24;;;;;;;98.38;83.38;;;15.90;99.90;;;;;;5053235;28;20167;-63
2022/11/21 10:55:02;;;;;;;63.22;41.80;;;16.00;99.90;;;;;;5053755;28;20111;-64
2022/11/21 10:57:32;;;;;;;67.25;44.80;;;16.10;99.90;;;;;;5053441;28;20029;-64
2022/11/21 11:00:01;;;;;;;46.40;15.25;;;16.10;99.90;;;;;;5053558;28;20021;-64
2022/11/21 11:02:27;;;;;;;41.83;10.65;;;16.00;99.90;;;;;;5052669;28;20037;-64
2022/11/21 11:05:14;;;;;;;42.78;9.52;;;16.00;99.90;;;;;;5053194;28;20035;-64
2022/11/21 11:07:40;;;;;;;36.78;8.38;;;16.10;99.90;;;;;;5052577;28;20056;-62
2022/11/21 11:10:24;;;;;;;42.10;9.32;;;16.00;99.90;;;;;;5052554;28;20079;-63
2022/11/21 11:15:35;;;;;;;42.03;9.68;;;16.10;99.90;;;;;;5050873;28;20003;-64
2022/11/21 11:18:03;;;;;;;44.45;8.57;;;16.10;99.90;;;;;;5051880;28;20419;-61
2022/11/21 11:20:28;;;;;;;40.40;9.43;;;16.10;99.90;;;;;;5052249;28;20094;-61
2022/11/21 11:22:55;;;;;;;46.88;9.65;;;16.10;99.90;;;;;;5051756;28;20033;-62
2022/11/21 11:25:22;;;;;;;37.67;9.27;;;16.00;99.90;;;;;;5052049;28;20116;-64
2022/11/21 11:27:48;;;;;;;41.22;9.50;;;15.90;99.90;;;;;;5051773;28;20025;-64
2022/11/21 11:30:18;;;;;;;44.83;10.43;;;15.70;99.90;;;;;;5052002;28;20040;-63
2022/11/21 11:32:44;;;;;;;43.97;9.73;;;15.70;99.90;;;;;;5052157;28;20021;-63
2022/11/21 11:35:16;;;;;;;43.97;10.55;;;15.60;99.90;;;;;;5052035;28;20029;-62
2022/11/21 11:37:49;;;;;;;49.92;14.00;;;15.60;99.90;;;;;;5052381;28;20029;-63
2022/11/21 11:40:34;;;;;;;95.63;67.20;;;15.50;99.90;;;;;;5051854;28;20151;-63
2022/11/21 11:52:32;;;;;;;37.53;9.45;;;15.70;99.90;;;;;;5050921;28;20040;-62
2022/11/21 11:55:04;;;;;;;45.88;11.25;;;15.60;99.90;;;;;;5051977;28;20036;-63
2022/11/21 11:57:31;;;;;;;32.95;8.07;;;15.10;99.90;;;;;;5051614;28;20033;-63
2022/11/21 12:00:23;;;;;;;37.33;10.93;;;14.30;99.90;;;;;;5051470;28;20028;-62
2022/11/21 12:03:15;;;;;;;35.50;8.43;;;14.00;99.90;;;;;;5051844;28;20072;-62
2022/11/21 12:06:04;;;;;;;33.47;9.18;;;14.00;99.90;;;;;;5051783;28;20021;-63
2022/11/21 12:08:51;;;;;;;37.80;8.45;;;14.00;99.90;;;;;;5051916;28;20378;-63
2022/11/21 12:12:07;;;;;;;40.13;8.45;;;14.00;99.90;;;;;;5051632;28;20052;-63
2022/11/21 12:17:53;;;;;;;40.60;9.10;;;14.10;99.90;;;;;;5051607;28;20032;-64
2022/11/21 12:20:24;;;;;;;40.08;9.23;;;14.20;99.90;;;;;;5051301;28;20061;-63
2022/11/21 12:22:52;;;;;;;41.22;8.50;;;14.20;99.90;;;;;;5051026;28;20033;-64
2022/11/21 12:25:22;;;;;;;40.40;9.27;;;14.30;99.90;;;;;;5051307;28;20028;-63
2022/11/21 12:27:53;;;;;;;47.15;8.52;;;14.40;99.90;;;;;;5051495;28;20025;-63
2022/11/21 12:30:19;;;;;;;37.50;8.73;;;14.30;99.90;;;;;;5051006;28;20075;-64
2022/11/21 12:33:05;;;;;;;40.40;7.93;;;14.20;99.90;;;;;;5051513;28;20564;-64
2022/11/21 12:35:53;;;;;;;38.72;9.13;;;14.10;99.90;;;;;;5051558;28;20036;-63
2022/11/21 12:38:30;;;;;;;40.78;8.50;;;14.10;99.90;;;;;;5051287;28;20027;-62
2022/11/21 12:42:47;;;;;;;40.42;8.50;;;14.10;99.90;;;;;;5051251;28;20049;-62
2022/11/21 12:44:23;;;;;;;43.30;8.38;;;14.10;99.90;;;;;;5050938;28;20045;-63
2022/11/21 12:47:19;;;;;;;38.58;8.07;;;14.10;99.90;;;;;;5051187;28;20428;-63
2022/11/21 12:55:42;;;;;;;49.50;10.02;;;14.10;99.90;;;;;;5050535;28;20082;-62
2022/11/21 12:58:31;;;;;;;43.83;10.95;;;14.00;99.90;;;;;;5050990;28;20024;-63
2022/11/21 13:00:59;;;;;;;40.90;9.45;;;14.00;99.90;;;;;;5051257;28;20017;-63
2022/11/21 13:03:38;;;;;;;46.53;10.15;;;14.10;99.90;;;;;;5050996;28;20110;-63
2022/11/21 13:06:11;;;;;;;49.80;10.60;;;14.20;99.90;;;;;;5050774;28;20021;-64
2022/11/21 13:08:38;;;;;;;48.17;11.73;;;14.20;99.90;;;;;;5051082;28;20514;-62
2022/11/21 13:14:19;;;;;;;55.25;11.50;;;14.10;99.90;;;;;;5054998;28;20028;-62
2022/11/21 13:17:26;;;;;;;78.10;33.30;;;14.00;99.90;;;;;;5054181;28;20048;-61
2022/11/21 13:20:14;;;;;;;55.75;15.32;;;13.90;99.90;;;;;;5051492;28;20037;-63
2022/11/21 13:22:40;;;;;;;66.53;27.27;;;13.80;99.90;;;;;;5054501;28;20032;-63
2022/11/21 13:25:32;;;;;;;71.22;33.75;;;13.90;99.90;;;;;;5054212;28;20493;-64
2022/11/21 13:28:16;;;;;;;69.57;33.83;;;13.90;99.90;;;;;;5053972;28;20358;-65